Terminal Aerodrome Forecast
Issued by NWS

Home | Current Version | Previous Version | Graphics & Text | Print | Product List | Glossary On
Versions: 1 2 3 4 5 6 7 8 9 10 11 12 13 14 15 16 17 18 19
101
FTUS43 KGRB 200531
TAFMTW
TAF
KMTW 200531Z 2006/2106 10006KT P6SM SKC
     FM200800 13004KT 5SM BR SCT070 WS005/13025KT
      TEMPO 2010/2014 3SM BR BKN008
     FM201400 14009KT P6SM SCT070
     FM201600 16014G22KT P6SM BKN070 PROB30 2023/2102 5SM -TSRA
      OVC030CB=

USA.gov is the U.S. government's official web portal to all federal, state and local government web resources and services.